sensor_id;sensor_type;location;lat;lon;timestamp;pressure;altitude;pressure_sealevel;temperature;humidity
55077;BME280;40971;44.702;11.030;2022-07-06T00:01:47;101331.19;;;23.50;96.07
55077;BME280;40971;44.702;11.030;2022-07-06T00:04:12;101315.13;;;23.41;96.94
55077;BME280;40971;44.702;11.030;2022-07-06T00:06:38;101341.44;;;23.54;97.29
55077;BME280;40971;44.702;11.030;2022-07-06T00:09:05;101291.03;;;23.16;97.87
55077;BME280;40971;44.702;11.030;2022-07-06T00:11:31;101340.13;;;23.40;98.07
55077;BME280;40971;44.702;11.030;2022-07-06T00:13:57;101360.28;;;23.43;98.09
55077;BME280;40971;44.702;11.030;2022-07-06T00:16:23;101372.63;;;23.44;97.99
55077;BME280;40971;44.702;11.030;2022-07-06T00:18:49;101327.88;;;23.02;97.61
55077;BME280;40971;44.702;11.030;2022-07-06T00:21:15;101387.78;;;23.44;97.30
55077;BME280;40971;44.702;11.030;2022-07-06T00:23:40;101382.63;;;23.42;96.20
55077;BME280;40971;44.702;11.030;2022-07-06T00:26:06;101300.25;;;23.03;93.55
55077;BME280;40971;44.702;11.030;2022-07-06T00:28:32;101329.06;;;23.35;90.09
55077;BME280;40971;44.702;11.030;2022-07-06T00:30:57;101380.16;;;23.76;87.09
55077;BME280;40971;44.702;11.030;2022-07-06T00:33:23;101343.19;;;23.63;85.62
55077;BME280;40971;44.702;11.030;2022-07-06T00:35:49;101333.38;;;23.64;83.78
55077;BME280;40971;44.702;11.030;2022-07-06T00:38:15;101330.94;;;23.88;80.32
55077;BME280;40971;44.702;11.030;2022-07-06T00:40:40;101360.09;;;24.08;79.92
55077;BME280;40971;44.702;11.030;2022-07-06T00:43:06;101313.84;;;23.81;79.34
55077;BME280;40971;44.702;11.030;2022-07-06T00:45:31;101338.63;;;23.91;79.29
55077;BME280;40971;44.702;11.030;2022-07-06T00:47:57;101342.19;;;23.82;79.94
55077;BME280;40971;44.702;11.030;2022-07-06T00:50:23;101361.41;;;23.86;79.47
55077;BME280;40971;44.702;11.030;2022-07-06T00:55:27;101371.09;;;23.87;79.36
55077;BME280;40971;44.702;11.030;2022-07-06T00:57:54;101378.53;;;23.83;78.76
55077;BME280;40971;44.702;11.030;2022-07-06T01:00:22;101354.84;;;23.62;79.77
55077;BME280;40971;44.702;11.030;2022-07-06T01:02:48;101326.78;;;23.40;79.27
55077;BME280;40971;44.702;11.030;2022-07-06T01:05:14;101373.91;;;23.67;79.23
55077;BME280;40971;44.702;11.030;2022-07-06T01:07:43;101357.00;;;23.49;78.62
55077;BME280;40971;44.702;11.030;2022-07-06T01:10:11;101378.47;;;23.57;79.25
55077;BME280;40971;44.702;11.030;2022-07-06T01:12:38;101386.06;;;23.52;79.06
55077;BME280;40971;44.702;11.030;2022-07-06T01:15:06;101366.41;;;23.35;79.23
55077;BME280;40971;44.702;11.030;2022-07-06T01:17:32;101378.16;;;23.33;79.23
55077;BME280;40971;44.702;11.030;2022-07-06T01:20:13;101370.47;;;23.30;79.19
55077;BME280;40971;44.702;11.030;2022-07-06T01:22:39;101357.91;;;23.22;79.07
55077;BME280;40971;44.702;11.030;2022-07-06T01:25:06;101351.41;;;23.07;79.56
55077;BME280;40971;44.702;11.030;2022-07-06T01:27:34;101351.13;;;23.00;79.49
55077;BME280;40971;44.702;11.030;2022-07-06T01:30:02;101339.56;;;22.92;79.45
55077;BME280;40971;44.702;11.030;2022-07-06T01:32:28;101296.34;;;22.61;79.58
55077;BME280;40971;44.702;11.030;2022-07-06T01:34:53;101355.00;;;22.88;79.07
55077;BME280;40971;44.702;11.030;2022-07-06T01:37:20;101359.19;;;22.91;79.58
55077;BME280;40971;44.702;11.030;2022-07-06T01:39:45;101359.19;;;22.81;79.58
55077;BME280;40971;44.702;11.030;2022-07-06T01:42:11;101346.78;;;22.72;79.80
55077;BME280;40971;44.702;11.030;2022-07-06T01:44:36;101350.41;;;22.71;79.75
55077;BME280;40971;44.702;11.030;2022-07-06T01:47:02;101354.63;;;22.64;79.96
55077;BME280;40971;44.702;11.030;2022-07-06T01:49:27;101341.06;;;22.57;79.70
55077;BME280;40971;44.702;11.030;2022-07-06T01:51:53;101363.47;;;22.64;79.51
55077;BME280;40971;44.702;11.030;2022-07-06T01:54:18;101363.88;;;22.69;79.94
55077;BME280;40971;44.702;11.030;2022-07-06T01:56:44;101314.53;;;22.38;79.66
55077;BME280;40971;44.702;11.030;2022-07-06T01:59:09;101361.97;;;22.52;79.37
55077;BME280;40971;44.702;11.030;2022-07-06T02:01:35;101349.78;;;22.49;79.64
55077;BME280;40971;44.702;11.030;2022-07-06T02:04:00;101349.78;;;22.49;79.67
55077;BME280;40971;44.702;11.030;2022-07-06T02:06:26;101330.75;;;22.44;79.16
55077;BME280;40971;44.702;11.030;2022-07-06T02:08:51;101310.34;;;22.35;79.19
55077;BME280;40971;44.702;11.030;2022-07-06T02:11:18;101347.78;;;22.61;79.03
55077;BME280;40971;44.702;11.030;2022-07-06T02:13:43;101358.81;;;22.66;79.03
55077;BME280;40971;44.702;11.030;2022-07-06T02:16:10;101370.19;;;22.68;79.27
55077;BME280;40971;44.702;11.030;2022-07-06T02:18:38;101341.22;;;22.56;79.41
55077;BME280;40971;44.702;11.030;2022-07-06T02:21:07;101364.03;;;22.68;79.36
55077;BME280;40971;44.702;11.030;2022-07-06T02:23:32;101319.16;;;22.36;79.03
55077;BME280;40971;44.702;11.030;2022-07-06T02:25:58;101378.31;;;22.67;79.04
55077;BME280;40971;44.702;11.030;2022-07-06T02:28:23;101368.09;;;22.62;78.86
55077;BME280;40971;44.702;11.030;2022-07-06T02:30:50;101392.44;;;22.67;79.16
55077;BME280;40971;44.702;11.030;2022-07-06T02:33:15;101401.84;;;22.71;78.97
55077;BME280;40971;44.702;11.030;2022-07-06T02:35:40;101390.22;;;22.63;79.24
55077;BME280;40971;44.702;11.030;2022-07-06T02:38:08;101406.03;;;22.74;79.19
55077;BME280;40971;44.702;11.030;2022-07-06T02:40:34;101412.22;;;22.74;79.11
55077;BME280;40971;44.702;11.030;2022-07-06T02:42:59;101408.72;;;22.64;78.55
55077;BME280;40971;44.702;11.030;2022-07-06T02:45:25;101422.72;;;22.76;78.76
55077;BME280;40971;44.702;11.030;2022-07-06T02:47:50;101436.31;;;22.83;78.86
55077;BME280;40971;44.702;11.030;2022-07-06T02:50:16;101438.13;;;22.92;79.01
55077;BME280;40971;44.702;11.030;2022-07-06T02:52:42;101396.09;;;22.66;78.86
55077;BME280;40971;44.702;11.030;2022-07-06T02:55:08;101454.94;;;22.92;79.21
55077;BME280;40971;44.702;11.030;2022-07-06T02:57:33;101466.56;;;22.91;79.14
55077;BME280;40971;44.702;11.030;2022-07-06T02:59:58;101464.91;;;22.90;79.48
55077;BME280;40971;44.702;11.030;2022-07-06T03:02:25;101466.97;;;22.96;79.09
55077;BME280;40971;44.702;11.030;2022-07-06T03:04:50;101457.84;;;22.99;78.73
55077;BME280;40971;44.702;11.030;2022-07-06T03:07:16;101460.50;;;22.99;79.25
55077;BME280;40971;44.702;11.030;2022-07-06T03:09:41;101473.88;;;22.89;79.54
55077;BME280;40971;44.702;11.030;2022-07-06T03:12:07;101424.75;;;22.45;80.09
55077;BME280;40971;44.702;11.030;2022-07-06T03:14:33;101485.94;;;22.74;80.05
55077;BME280;40971;44.702;11.030;2022-07-06T03:16:58;101441.28;;;22.39;80.83
55077;BME280;40971;44.702;11.030;2022-07-06T03:19:23;101437.34;;;22.33;80.46
55077;BME280;40971;44.702;11.030;2022-07-06T03:21:49;101488.44;;;22.66;80.25
55077;BME280;40971;44.702;11.030;2022-07-06T03:24:15;101477.66;;;22.67;80.58
55077;BME280;40971;44.702;11.030;2022-07-06T03:26:40;101476.84;;;22.57;80.37
55077;BME280;40971;44.702;11.030;2022-07-06T03:29:06;101479.63;;;22.65;80.47
55077;BME280;40971;44.702;11.030;2022-07-06T03:31:31;101481.72;;;22.62;80.46
55077;BME280;40971;44.702;11.030;2022-07-06T03:33:57;101445.63;;;22.20;80.45
55077;BME280;40971;44.702;11.030;2022-07-06T03:36:22;101485.13;;;22.35;81.36
55077;BME280;40971;44.702;11.030;2022-07-06T03:38:48;101498.56;;;22.33;81.42
55077;BME280;40971;44.702;11.030;2022-07-06T03:41:14;101476.59;;;22.21;81.55
55077;BME280;40971;44.702;11.030;2022-07-06T03:43:40;101430.59;;;22.00;80.54
55077;BME280;40971;44.702;11.030;2022-07-06T03:46:05;101496.06;;;22.51;79.78
55077;BME280;40971;44.702;11.030;2022-07-06T03:48:31;101472.09;;;22.51;78.82
55077;BME280;40971;44.702;11.030;2022-07-06T03:50:56;101509.06;;;22.64;78.09
55077;BME280;40971;44.702;11.030;2022-07-06T03:53:23;101514.25;;;22.75;76.85
55077;BME280;40971;44.702;11.030;2022-07-06T03:55:48;101494.78;;;22.55;76.09
55077;BME280;40971;44.702;11.030;2022-07-06T03:58:33;101514.53;;;22.72;75.12
55077;BME280;40971;44.702;11.030;2022-07-06T04:00:59;101431.22;;;22.23;75.05
55077;BME280;40971;44.702;11.030;2022-07-06T04:03:25;101506.53;;;22.62;75.23
55077;BME280;40971;44.702;11.030;2022-07-06T04:05:50;101531.19;;;22.64;74.94
55077;BME280;40971;44.702;11.030;2022-07-06T04:08:16;101509.22;;;22.52;74.66
55077;BME280;40971;44.702;11.030;2022-07-06T04:10:41;101449.81;;;22.13;75.05
55077;BME280;40971;44.702;11.030;2022-07-06T04:13:07;101463.84;;;22.06;75.34
55077;BME280;40971;44.702;11.030;2022-07-06T04:15:32;101519.44;;;22.18;75.83
55077;BME280;40971;44.702;11.030;2022-07-06T04:17:58;101457.59;;;21.76;75.81
55077;BME280;40971;44.702;11.030;2022-07-06T04:20:24;101522.63;;;22.12;76.22
55077;BME280;40971;44.702;11.030;2022-07-06T04:22:51;101525.28;;;22.03;76.58
55077;BME280;40971;44.702;11.030;2022-07-06T04:25:17;101510.97;;;21.84;76.95
55077;BME280;40971;44.702;11.030;2022-07-06T04:27:42;101512.88;;;21.73;78.42
55077;BME280;40971;44.702;11.030;2022-07-06T04:30:08;101520.09;;;21.61;78.47
55077;BME280;40971;44.702;11.030;2022-07-06T04:32:35;101537.31;;;21.67;79.13
55077;BME280;40971;44.702;11.030;2022-07-06T04:35:01;101515.34;;;21.65;79.57
55077;BME280;40971;44.702;11.030;2022-07-06T04:37:31;101532.63;;;21.80;78.46
55077;BME280;40971;44.702;11.030;2022-07-06T04:39:57;101524.97;;;21.96;77.57
55077;BME280;40971;44.702;11.030;2022-07-06T04:42:23;101530.19;;;22.07;77.15
55077;BME280;40971;44.702;11.030;2022-07-06T04:44:48;101524.47;;;22.12;77.55
55077;BME280;40971;44.702;11.030;2022-07-06T04:47:14;101521.09;;;22.10;77.09
55077;BME280;40971;44.702;11.030;2022-07-06T04:49:39;101527.81;;;22.14;77.50
55077;BME280;40971;44.702;11.030;2022-07-06T04:52:05;101534.69;;;22.26;78.50
55077;BME280;40971;44.702;11.030;2022-07-06T04:54:31;101473.44;;;21.97;78.70
55077;BME280;40971;44.702;11.030;2022-07-06T04:56:56;101518.75;;;22.36;77.32
55077;BME280;40971;44.702;11.030;2022-07-06T04:59:22;101485.38;;;22.12;78.34
55077;BME280;40971;44.702;11.030;2022-07-06T05:01:47;101522.94;;;22.38;78.32
55077;BME280;40971;44.702;11.030;2022-07-06T05:04:13;101527.56;;;22.46;78.62
55077;BME280;40971;44.702;11.030;2022-07-06T05:06:43;101453.19;;;22.06;77.40
55077;BME280;40971;44.702;11.030;2022-07-06T05:09:09;101524.91;;;22.46;77.69
55077;BME280;40971;44.702;11.030;2022-07-06T05:11:38;101543.69;;;22.54;78.20
55077;BME280;40971;44.702;11.030;2022-07-06T05:14:04;101508.50;;;22.50;77.95
55077;BME280;40971;44.702;11.030;2022-07-06T05:16:30;101530.91;;;22.67;77.35
55077;BME280;40971;44.702;11.030;2022-07-06T05:18:55;101526.13;;;22.80;78.15
55077;BME280;40971;44.702;11.030;2022-07-06T05:21:21;101520.81;;;22.80;75.69
55077;BME280;40971;44.702;11.030;2022-07-06T05:23:46;101503.59;;;22.65;76.04
55077;BME280;40971;44.702;11.030;2022-07-06T05:26:12;101555.72;;;22.97;75.87
55077;BME280;40971;44.702;11.030;2022-07-06T05:28:37;101552.75;;;23.09;75.64
55077;BME280;40971;44.702;11.030;2022-07-06T05:31:03;101561.44;;;23.21;76.51
55077;BME280;40971;44.702;11.030;2022-07-06T05:33:28;101541.50;;;23.25;74.73
55077;BME280;40971;44.702;11.030;2022-07-06T05:35:54;101562.34;;;23.39;74.46
55077;BME280;40971;44.702;11.030;2022-07-06T05:38:19;101570.44;;;23.48;74.29
55077;BME280;40971;44.702;11.030;2022-07-06T05:40:45;101537.59;;;23.20;74.78
55077;BME280;40971;44.702;11.030;2022-07-06T05:43:11;101577.88;;;23.54;74.83
55077;BME280;40971;44.702;11.030;2022-07-06T05:45:36;101573.13;;;23.48;73.45
55077;BME280;40971;44.702;11.030;2022-07-06T05:48:02;101576.63;;;23.48;74.15
55077;BME280;40971;44.702;11.030;2022-07-06T05:50:46;101579.75;;;23.34;74.05
55077;BME280;40971;44.702;11.030;2022-07-06T05:53:12;101552.75;;;23.19;73.98
55077;BME280;40971;44.702;11.030;2022-07-06T05:55:37;101590.53;;;23.52;73.47
55077;BME280;40971;44.702;11.030;2022-07-06T05:58:03;101603.84;;;23.52;73.15
55077;BME280;40971;44.702;11.030;2022-07-06T06:00:28;101551.41;;;23.33;72.59
55077;BME280;40971;44.702;11.030;2022-07-06T06:02:54;101610.81;;;23.72;72.25
55077;BME280;40971;44.702;11.030;2022-07-06T06:05:20;101601.53;;;23.76;71.28
55077;BME280;40971;44.702;11.030;2022-07-06T06:07:46;101622.44;;;23.81;71.17
55077;BME280;40971;44.702;11.030;2022-07-06T06:10:14;101586.28;;;23.68;71.30
55077;BME280;40971;44.702;11.030;2022-07-06T06:12:41;101622.91;;;24.04;70.98
55077;BME280;40971;44.702;11.030;2022-07-06T06:15:08;101615.94;;;23.93;72.02
55077;BME280;40971;44.702;11.030;2022-07-06T06:17:35;101619.50;;;24.01;71.42
55077;BME280;40971;44.702;11.030;2022-07-06T06:20:00;101608.13;;;24.09;72.34
55077;BME280;40971;44.702;11.030;2022-07-06T06:22:26;101608.56;;;24.05;72.41
55077;BME280;40971;44.702;11.030;2022-07-06T06:24:51;101598.00;;;23.85;72.55
55077;BME280;40971;44.702;11.030;2022-07-06T06:27:17;101575.50;;;23.60;73.38
55077;BME280;40971;44.702;11.030;2022-07-06T06:29:43;101613.66;;;23.61;74.08
55077;BME280;40971;44.702;11.030;2022-07-06T06:32:10;101617.31;;;23.69;74.76
55077;BME280;40971;44.702;11.030;2022-07-06T06:34:36;101613.22;;;23.65;75.59
55077;BME280;40971;44.702;11.030;2022-07-06T06:37:02;101617.16;;;23.71;74.89
55077;BME280;40971;44.702;11.030;2022-07-06T06:39:28;101627.81;;;23.71;74.58
55077;BME280;40971;44.702;11.030;2022-07-06T06:41:53;101634.22;;;23.78;74.95
55077;BME280;40971;44.702;11.030;2022-07-06T06:44:18;101623.25;;;23.91;75.65
55077;BME280;40971;44.702;11.030;2022-07-06T06:46:45;101579.53;;;23.64;74.42
55077;BME280;40971;44.702;11.030;2022-07-06T06:49:11;101616.84;;;23.74;75.64
55077;BME280;40971;44.702;11.030;2022-07-06T06:51:36;101615.88;;;23.65;76.07
55077;BME280;40971;44.702;11.030;2022-07-06T06:54:05;101616.88;;;23.64;76.26
55077;BME280;40971;44.702;11.030;2022-07-06T06:56:35;101615.88;;;23.75;76.05
55077;BME280;40971;44.702;11.030;2022-07-06T06:59:01;101593.63;;;23.84;75.91
55077;BME280;40971;44.702;11.030;2022-07-06T07:01:27;101599.72;;;24.04;74.92
55077;BME280;40971;44.702;11.030;2022-07-06T07:03:53;101573.72;;;24.06;74.66
55077;BME280;40971;44.702;11.030;2022-07-06T07:06:21;101608.41;;;24.51;73.93
55077;BME280;40971;44.702;11.030;2022-07-06T07:08:49;101612.19;;;24.76;72.92
55077;BME280;40971;44.702;11.030;2022-07-06T07:11:14;101624.16;;;24.90;72.66
55077;BME280;40971;44.702;11.030;2022-07-06T07:13:40;101606.72;;;25.22;71.58
55077;BME280;40971;44.702;11.030;2022-07-06T07:16:05;101614.97;;;25.54;69.13
55077;BME280;40971;44.702;11.030;2022-07-06T07:18:31;101606.22;;;25.52;69.00
55077;BME280;40971;44.702;11.030;2022-07-06T07:20:56;101559.38;;;25.40;70.13
55077;BME280;40971;44.702;11.030;2022-07-06T07:23:22;101605.13;;;25.97;69.84
55077;BME280;40971;44.702;11.030;2022-07-06T07:25:47;101608.31;;;25.92;68.25
55077;BME280;40971;44.702;11.030;2022-07-06T07:28:13;101614.88;;;26.06;69.27
55077;BME280;40971;44.702;11.030;2022-07-06T07:30:38;101559.72;;;26.21;68.65
55077;BME280;40971;44.702;11.030;2022-07-06T07:33:04;101600.97;;;26.61;68.44
55077;BME280;40971;44.702;11.030;2022-07-06T07:35:29;101604.00;;;26.82;67.21
55077;BME280;40971;44.702;11.030;2022-07-06T07:37:55;101564.63;;;26.66;66.70
55077;BME280;40971;44.702;11.030;2022-07-06T07:40:20;101598.50;;;27.00;67.34
55077;BME280;40971;44.702;11.030;2022-07-06T07:42:46;101590.28;;;27.02;66.26
55077;BME280;40971;44.702;11.030;2022-07-06T07:45:12;101583.91;;;27.03;66.37
55077;BME280;40971;44.702;11.030;2022-07-06T07:47:38;101598.31;;;27.26;63.92
55077;BME280;40971;44.702;11.030;2022-07-06T07:50:04;101586.59;;;27.11;65.36
55077;BME280;40971;44.702;11.030;2022-07-06T07:52:30;101550.72;;;27.04;64.93
55077;BME280;40971;44.702;11.030;2022-07-06T07:54:56;101583.84;;;27.43;64.43
55077;BME280;40971;44.702;11.030;2022-07-06T07:57:21;101576.41;;;27.62;64.94
55077;BME280;40971;44.702;11.030;2022-07-06T07:59:47;101579.84;;;27.86;64.10
55077;BME280;40971;44.702;11.030;2022-07-06T08:02:12;101590.91;;;28.23;63.82
55077;BME280;40971;44.702;11.030;2022-07-06T08:04:38;101596.97;;;28.16;62.67
55077;BME280;40971;44.702;11.030;2022-07-06T08:07:03;101550.38;;;27.78;62.52
55077;BME280;40971;44.702;11.030;2022-07-06T08:09:29;101578.91;;;28.02;62.76
55077;BME280;40971;44.702;11.030;2022-07-06T08:11:54;101593.75;;;28.21;61.76
55077;BME280;40971;44.702;11.030;2022-07-06T08:14:20;101550.84;;;27.82;59.98
55077;BME280;40971;44.702;11.030;2022-07-06T08:16:45;101581.88;;;27.84;61.05
55077;BME280;40971;44.702;11.030;2022-07-06T08:19:11;101576.19;;;27.79;60.84
55077;BME280;40971;44.702;11.030;2022-07-06T08:21:41;101547.91;;;27.61;61.44
55077;BME280;40971;44.702;11.030;2022-07-06T08:24:07;101587.22;;;28.24;60.93
55077;BME280;40971;44.702;11.030;2022-07-06T08:26:32;101539.56;;;28.26;59.97
55077;BME280;40971;44.702;11.030;2022-07-06T08:28:58;101546.94;;;28.24;58.32
55077;BME280;40971;44.702;11.030;2022-07-06T08:31:25;101589.44;;;28.66;60.55
55077;BME280;40971;44.702;11.030;2022-07-06T08:33:53;101584.50;;;28.55;59.53
55077;BME280;40971;44.702;11.030;2022-07-06T08:36:19;101592.03;;;28.59;57.96
55077;BME280;40971;44.702;11.030;2022-07-06T08:38:45;101597.28;;;28.30;58.73
55077;BME280;40971;44.702;11.030;2022-07-06T08:41:11;101523.56;;;28.01;59.43
55077;BME280;40971;44.702;11.030;2022-07-06T08:43:41;101594.97;;;28.72;59.44
55077;BME280;40971;44.702;11.030;2022-07-06T08:46:07;101570.34;;;28.61;59.67
55077;BME280;40971;44.702;11.030;2022-07-06T08:48:37;101594.66;;;28.44;61.44
55077;BME280;40971;44.702;11.030;2022-07-06T08:51:04;101597.03;;;28.62;60.88
55077;BME280;40971;44.702;11.030;2022-07-06T08:53:30;101592.97;;;28.66;60.22
55077;BME280;40971;44.702;11.030;2022-07-06T08:55:56;101596.94;;;28.56;58.80
55077;BME280;40971;44.702;11.030;2022-07-06T08:58:25;101548.84;;;28.61;59.17
55077;BME280;40971;44.702;11.030;2022-07-06T09:00:53;101604.59;;;29.42;58.75
55077;BME280;40971;44.702;11.030;2022-07-06T09:03:19;101590.13;;;29.58;56.64
55077;BME280;40971;44.702;11.030;2022-07-06T09:05:46;101550.59;;;29.73;55.58
55077;BME280;40971;44.702;11.030;2022-07-06T09:08:12;101595.31;;;29.74;55.31
55077;BME280;40971;44.702;11.030;2022-07-06T09:10:39;101600.97;;;30.09;54.37
55077;BME280;40971;44.702;11.030;2022-07-06T09:13:06;101590.78;;;30.26;54.44
55077;BME280;40971;44.702;11.030;2022-07-06T09:15:36;101579.38;;;30.23;52.20
55077;BME280;40971;44.702;11.030;2022-07-06T09:18:04;101581.34;;;30.15;53.70
55077;BME280;40971;44.702;11.030;2022-07-06T09:20:32;101586.84;;;30.07;54.84
55077;BME280;40971;44.702;11.030;2022-07-06T09:22:59;101565.00;;;29.87;55.08
55077;BME280;40971;44.702;11.030;2022-07-06T09:25:25;101553.63;;;29.70;54.28
55077;BME280;40971;44.702;11.030;2022-07-06T09:27:57;101580.28;;;29.80;56.68
55077;BME280;40971;44.702;11.030;2022-07-06T09:30:23;101552.53;;;30.01;54.23
55077;BME280;40971;44.702;11.030;2022-07-06T09:32:51;101584.03;;;30.15;53.44
55077;BME280;40971;44.702;11.030;2022-07-06T09:37:45;101586.94;;;30.35;53.69
55077;BME280;40971;44.702;11.030;2022-07-06T09:40:19;101572.88;;;30.39;53.63
55077;BME280;40971;44.702;11.030;2022-07-06T09:42:45;101572.66;;;30.77;54.14
55077;BME280;40971;44.702;11.030;2022-07-06T09:45:11;101571.34;;;30.94;51.65
55077;BME280;40971;44.702;11.030;2022-07-06T09:47:36;101571.78;;;31.26;51.66
55077;BME280;40971;44.702;11.030;2022-07-06T09:50:05;101526.84;;;30.83;52.39
55077;BME280;40971;44.702;11.030;2022-07-06T09:52:35;101538.56;;;30.48;53.56
55077;BME280;40971;44.702;11.030;2022-07-06T09:55:00;101557.94;;;30.79;52.40
55077;BME280;40971;44.702;11.030;2022-07-06T09:57:26;101547.72;;;31.03;51.30
55077;BME280;40971;44.702;11.030;2022-07-06T09:59:51;101557.63;;;31.24;51.54
55077;BME280;40971;44.702;11.030;2022-07-06T10:02:19;101566.84;;;31.36;51.39
55077;BME280;40971;44.702;11.030;2022-07-06T10:04:45;101564.44;;;31.54;53.08
55077;BME280;40971;44.702;11.030;2022-07-06T10:07:12;101555.50;;;31.47;52.47
55077;BME280;40971;44.702;11.030;2022-07-06T10:09:37;101567.09;;;31.76;51.43
55077;BME280;40971;44.702;11.030;2022-07-06T10:12:05;101569.66;;;31.56;51.93
55077;BME280;40971;44.702;11.030;2022-07-06T10:14:33;101510.56;;;31.26;52.71
55077;BME280;40971;44.702;11.030;2022-07-06T10:17:03;101520.88;;;31.64;48.87
55077;BME280;40971;44.702;11.030;2022-07-06T10:19:31;101556.28;;;32.50;51.39
55077;BME280;40971;44.702;11.030;2022-07-06T10:22:00;101558.06;;;32.23;49.90
55077;BME280;40971;44.702;11.030;2022-07-06T10:24:27;101546.78;;;31.93;50.38
55077;BME280;40971;44.702;11.030;2022-07-06T10:26:52;101559.38;;;32.27;49.90
55077;BME280;40971;44.702;11.030;2022-07-06T10:29:18;101544.63;;;32.43;48.04
55077;BME280;40971;44.702;11.030;2022-07-06T10:31:46;101556.69;;;32.27;49.49
55077;BME280;40971;44.702;11.030;2022-07-06T10:34:13;101533.00;;;31.75;49.71
55077;BME280;40971;44.702;11.030;2022-07-06T10:36:41;101544.38;;;31.63;48.31
55077;BME280;40971;44.702;11.030;2022-07-06T10:39:08;101514.53;;;31.85;48.27
55077;BME280;40971;44.702;11.030;2022-07-06T10:41:53;101541.72;;;32.77;48.07
55077;BME280;40971;44.702;11.030;2022-07-06T10:44:21;101538.59;;;32.67;48.35
55077;BME280;40971;44.702;11.030;2022-07-06T10:46:54;101530.28;;;32.62;47.53
55077;BME280;40971;44.702;11.030;2022-07-06T10:49:21;101531.94;;;32.89;47.76
55077;BME280;40971;44.702;11.030;2022-07-06T10:51:47;101504.88;;;32.89;45.91
55077;BME280;40971;44.702;11.030;2022-07-06T10:54:15;101534.41;;;32.58;49.00
55077;BME280;40971;44.702;11.030;2022-07-06T10:56:51;101502.78;;;32.72;47.89
55077;BME280;40971;44.702;11.030;2022-07-06T10:59:20;101520.25;;;33.15;46.87
55077;BME280;40971;44.702;11.030;2022-07-06T11:02:17;101527.50;;;32.22;46.30
55077;BME280;40971;44.702;11.030;2022-07-06T11:04:45;101520.41;;;31.95;48.02
55077;BME280;40971;44.702;11.030;2022-07-06T11:07:12;101530.72;;;32.59;48.48
55077;BME280;40971;44.702;11.030;2022-07-06T11:09:38;101525.91;;;33.01;46.39
55077;BME280;40971;44.702;11.030;2022-07-06T11:12:19;101515.84;;;33.28;47.13
55077;BME280;40971;44.702;11.030;2022-07-06T11:14:49;101503.59;;;33.12;45.99
55077;BME280;40971;44.702;11.030;2022-07-06T11:17:15;101526.13;;;32.93;46.05
55077;BME280;40971;44.702;11.030;2022-07-06T11:19:55;101502.59;;;32.93;46.09
55077;BME280;40971;44.702;11.030;2022-07-06T11:22:21;101513.00;;;32.96;46.30
55077;BME280;40971;44.702;11.030;2022-07-06T11:24:50;101508.00;;;32.67;45.65
55077;BME280;40971;44.702;11.030;2022-07-06T11:27:17;101463.69;;;32.87;44.44
55077;BME280;40971;44.702;11.030;2022-07-06T11:29:43;101492.09;;;33.36;44.46
55077;BME280;40971;44.702;11.030;2022-07-06T11:32:11;101491.16;;;34.00;44.52
55077;BME280;40971;44.702;11.030;2022-07-06T11:34:43;101475.03;;;33.74;44.42
55077;BME280;40971;44.702;11.030;2022-07-06T11:37:13;101483.47;;;32.95;46.23
55077;BME280;40971;44.702;11.030;2022-07-06T11:39:41;101486.28;;;31.81;46.99
55077;BME280;40971;44.702;11.030;2022-07-06T11:42:08;101466.56;;;32.00;46.12
55077;BME280;40971;44.702;11.030;2022-07-06T11:44:36;101465.38;;;32.36;48.88
55077;BME280;40971;44.702;11.030;2022-07-06T11:47:03;101457.19;;;33.02;45.73
55077;BME280;40971;44.702;11.030;2022-07-06T11:49:33;101449.88;;;33.15;44.05
55077;BME280;40971;44.702;11.030;2022-07-06T11:52:00;101436.03;;;33.75;44.41
55077;BME280;40971;44.702;11.030;2022-07-06T11:54:26;101396.69;;;33.72;43.42
55077;BME280;40971;44.702;11.030;2022-07-06T11:56:57;101436.34;;;33.09;44.87
55077;BME280;40971;44.702;11.030;2022-07-06T11:59:28;101429.78;;;32.65;47.16
55077;BME280;40971;44.702;11.030;2022-07-06T12:04:29;101426.00;;;33.50;43.19
55077;BME280;40971;44.702;11.030;2022-07-06T12:06:55;101412.03;;;33.85;43.05
55077;BME280;40971;44.702;11.030;2022-07-06T12:09:24;101415.19;;;32.73;43.71
55077;BME280;40971;44.702;11.030;2022-07-06T12:11:49;101415.88;;;31.95;46.55
55077;BME280;40971;44.702;11.030;2022-07-06T12:14:17;101412.72;;;32.71;43.78
55077;BME280;40971;44.702;11.030;2022-07-06T12:16:44;101408.13;;;32.85;43.78
55077;BME280;40971;44.702;11.030;2022-07-06T12:19:09;101404.13;;;33.01;42.82
55077;BME280;40971;44.702;11.030;2022-07-06T12:21:43;101412.81;;;33.16;42.82
55077;BME280;40971;44.702;11.030;2022-07-06T12:24:09;101385.66;;;33.36;41.25
55077;BME280;40971;44.702;11.030;2022-07-06T12:26:41;101437.81;;;33.56;41.17
55077;BME280;40971;44.702;11.030;2022-07-06T12:29:08;101452.47;;;32.64;43.12
55077;BME280;40971;44.702;11.030;2022-07-06T12:31:37;101438.34;;;32.49;43.25
55077;BME280;40971;44.702;11.030;2022-07-06T12:34:04;101397.72;;;31.63;42.26
55077;BME280;40971;44.702;11.030;2022-07-06T12:36:31;101418.47;;;31.62;43.76
55077;BME280;40971;44.702;11.030;2022-07-06T12:38:57;101392.19;;;32.44;40.94
55077;BME280;40971;44.702;11.030;2022-07-06T12:41:33;101440.56;;;32.91;41.34
55077;BME280;40971;44.702;11.030;2022-07-06T12:44:09;101428.34;;;32.49;40.73
55077;BME280;40971;44.702;11.030;2022-07-06T12:46:39;101377.63;;;31.85;41.14